Map

Track Data

SID SEASON NUMBER BASIN SUBBASIN NAME ISO_TIME NATURE LAT LON WMO_WIND WMO_PRES WMO_AGENCY TRACK_TYPE DIST2LAND LANDFALL IFLAG USA_AGENCY USA_ATCF_ID USA_LAT USA_LON USA_RECORD USA_STATUS USA_WIND USA_PRES USA_SSHS USA_R34_NE USA_R34_SE USA_R34_SW USA_R34_NW USA_R50_NE USA_R50_SE USA_R50_SW USA_R50_NW USA_R64_NE USA_R64_SE USA_R64_SW USA_R64_NW USA_POCI USA_ROCI USA_RMW USA_EYE TOKYO_LAT TOKYO_LON TOKYO_GRADE TOKYO_WIND TOKYO_PRES TOKYO_R50_DIR TOKYO_R50_LONG TOKYO_R50_SHORT TOKYO_R30_DIR TOKYO_R30_LONG TOKYO_R30_SHORT TOKYO_LAND CMA_LAT CMA_LON CMA_CAT CMA_WIND CMA_PRES HKO_LAT HKO_LON HKO_CAT HKO_WIND HKO_PRES NEWDELHI_LAT NEWDELHI_LON NEWDELHI_GRADE NEWDELHI_WIND NEWDELHI_PRES NEWDELHI_CI NEWDELHI_DP NEWDELHI_POCI REUNION_LAT REUNION_LON REUNION_TYPE REUNION_WIND REUNION_PRES REUNION_TNUM REUNION_CI REUNION_RMW REUNION_R34_NE REUNION_R34_SE REUNION_R34_SW REUNION_R34_NW REUNION_R50_NE REUNION_R50_SE REUNION_R50_SW REUNION_R50_NW REUNION_R64_NE REUNION_R64_SE REUNION_R64_SW REUNION_R64_NW BOM_LAT BOM_LON BOM_TYPE BOM_WIND BOM_PRES BOM_TNUM BOM_CI BOM_RMW BOM_R34_NE BOM_R34_SE BOM_R34_SW BOM_R34_NW BOM_R50_NE BOM_R50_SE BOM_R50_SW BOM_R50_NW BOM_R64_NE BOM_R64_SE BOM_R64_SW BOM_R64_NW BOM_ROCI BOM_POCI BOM_EYE BOM_POS_METHOD BOM_PRES_METHOD NADI_LAT NADI_LON NADI_CAT NADI_WIND NADI_PRES WELLINGTON_LAT WELLINGTON_LON WELLINGTON_WIND WELLINGTON_PRES DS824_LAT DS824_LON DS824_STAGE DS824_WIND DS824_PRES TD9636_LAT TD9636_LON TD9636_STAGE TD9636_WIND TD9636_PRES TD9635_LAT TD9635_LON TD9635_WIND TD9635_PRES TD9635_ROCI NEUMANN_LAT NEUMANN_LON NEUMANN_CLASS NEUMANN_WIND NEUMANN_PRES MLC_LAT MLC_LON MLC_CLASS MLC_WIND MLC_PRES USA_GUST BOM_GUST BOM_GUST_PER REUNION_GUST REUNION_GUST_PER USA_SEAHGT USA_SEARAD_NE USA_SEARAD_SE USA_SEARAD_SW USA_SEARAD_NW STORM_SPEED STORM_DIR
1953251N18295 1953 50 NA CS DOLLY 1953-09-08 06:00:00 TS 18.3000 -65.1000 30 hurdat_atl main 52 0 O_____________ hurdat_atl AL061953 18.3000 -65.1000 TD 30 -1 13 288
1953251N18295 1953 50 NA NA DOLLY 1953-09-08 09:00:00 TS 18.5030 -65.7671 main 11 11 P_____________ AL061953 18.5030 -65.7671 TD 32 -1 13 288
1953251N18295 1953 50 NA NA DOLLY 1953-09-08 12:00:00 TS 18.7000 -66.4000 35 hurdat_atl main 33 33 O_____________ hurdat_atl AL061953 18.7000 -66.4000 TS 35 0 12 289
1953251N18295 1953 50 NA NA DOLLY 1953-09-08 15:00:00 TS 18.8923 -66.9727 main 55 55 P_____________ AL061953 18.8923 -66.9727 TS 37 0 11 291
1953251N18295 1953 50 NA NA DOLLY 1953-09-08 18:00:00 TS 19.1000 -67.5000 40 hurdat_atl main 81 81 O_____________ hurdat_atl AL061953 19.1000 -67.5000 TS 40 0 11 294
1953251N18295 1953 50 NA NA DOLLY 1953-09-08 21:00:00 TS 19.3351 -68.0450 main 84 74 P_____________ AL061953 19.3351 -68.0450 TS 42 0 11 298
1953251N18295 1953 50 NA NA DOLLY 1953-09-09 00:00:00 TS 19.6000 -68.5000 45 hurdat_atl main 84 76 O_____________ hurdat_atl AL061953 19.6000 -68.5000 TS 45 0 9 309
1953251N18295 1953 50 NA NA DOLLY 1953-09-09 03:00:00 TS 19.8998 -68.7952 main 85 85 P_____________ AL061953 19.8998 -68.7952 TS 45 0 8 322
1953251N18295 1953 50 NA NA DOLLY 1953-09-09 06:00:00 TS 20.2000 -69.0000 45 hurdat_atl main 105 105 O_____________ hurdat_atl AL061953 20.2000 -69.0000 TS 45 0 7 324
1953251N18295 1953 50 NA NA DOLLY 1953-09-09 09:00:00 TS 20.4500 -69.2151 main 122 122 P_____________ AL061953 20.4500 -69.2151 TS 47 0 6 323
1953251N18295 1953 50 NA NA DOLLY 1953-09-09 12:00:00 TS 20.7000 -69.4000 50 1005 hurdat_atl main 138 138 O_____________ hurdat_atl AL061953 20.7000 -69.4000 TS 50 1005 0 6 328
1953251N18295 1953 50 NA NA DOLLY 1953-09-09 15:00:00 TS 20.9775 -69.5651 main 162 162 P_____________ AL061953 20.9775 -69.5651 TS 52 0 7 335
1953251N18295 1953 50 NA NA DOLLY 1953-09-09 18:00:00 TS 21.3000 -69.7000 55 hurdat_atl main 192 192 O_____________ hurdat_atl AL061953 21.3000 -69.7000 TS 55 0 7 342
1953251N18295 1953 50 NA NA DOLLY 1953-09-09 21:00:00 TS 21.6775 -69.8076 main 228 228 P_____________ AL061953 21.6775 -69.8076 TS 57 0 8 347
1953251N18295 1953 50 NA NA DOLLY 1953-09-10 00:00:00 TS 22.1000 -69.9000 60 hurdat_atl main 267 267 O_____________ hurdat_atl AL061953 22.1000 -69.9000 TS 60 0 9 349
1953251N18295 1953 50 NA NA DOLLY 1953-09-10 03:00:00 TS 22.5425 -69.9852 main 308 308 P_____________ AL061953 22.5425 -69.9852 TS 60 0 9 348
1953251N18295 1953 50 NA NA DOLLY 1953-09-10 06:00:00 TS 23.0000 -70.1000 60 999 hurdat_atl main 360 358 O_____________ hurdat_atl AL061953 23.0000 -70.1000 TS 60 999 0 9 343
1953251N18295 1953 50 NA NA DOLLY 1953-09-10 09:00:00 TS 23.4425 -70.2924 main 370 370 P_____________ AL061953 23.4425 -70.2924 TS 62 994 0 10 338
1953251N18295 1953 50 NA NA DOLLY 1953-09-10 12:00:00 TS 23.9000 -70.5000 65 990 hurdat_atl main 396 396 O_____________ hurdat_atl AL061953 23.9000 -70.5000 HU 65 990 1 10 338
1953251N18295 1953 50 NA NA DOLLY 1953-09-10 15:00:00 TS 24.3925 -70.7021 main 428 428 P_____________ AL061953 24.3925 -70.7021 HU 65 989 1 10 345
1953251N18295 1953 50 NA NA DOLLY 1953-09-10 18:00:00 TS 24.9000 -70.8000 65 989 hurdat_atl main 470 470 O_____________ hurdat_atl AL061953 24.9000 -70.8000 HU 65 989 1 10 359
1953251N18295 1953 50 NA NA DOLLY 1953-09-10 21:00:00 TS 25.3924 -70.7176 main 524 524 P_____________ AL061953 25.3924 -70.7176 HU 65 1 10 15
1953251N18295 1953 50 NA NA DOLLY 1953-09-11 00:00:00 TS 25.9000 -70.5000 65 hurdat_atl main 583 583 O_____________ hurdat_atl AL061953 25.9000 -70.5000 HU 65 1 11 23
1953251N18295 1953 50 NA NA DOLLY 1953-09-11 03:00:00 TS 26.4124 -70.2444 main 647 647 P_____________ AL061953 26.4124 -70.2444 HU 65 1 12 26
1953251N18295 1953 50 NA NA DOLLY 1953-09-11 06:00:00 TS 27.0000 -69.9000 65 hurdat_atl main 720 720 O_____________ hurdat_atl AL061953 27.0000 -69.9000 HU 65 1 15 27
1953251N18295 1953 50 NA NA DOLLY 1953-09-11 09:00:00 TS 27.7273 -69.4947 main 807 807 P_____________ AL061953 27.7273 -69.4947 HU 65 1 17 28
1953251N18295 1953 50 NA NA DOLLY 1953-09-11 12:00:00 TS 28.5000 -69.0000 65 hurdat_atl main 909 909 O_____________ hurdat_atl AL061953 28.5000 -69.0000 HU 65 1 17 32
1953251N18295 1953 50 NA NA DOLLY 1953-09-11 15:00:00 TS 29.2072 -68.4440 main 977 969 P_____________ AL061953 29.2072 -68.4440 HU 65 1 18 37
1953251N18295 1953 50 NA NA DOLLY 1953-09-11 18:00:00 TS 29.9000 -67.8000 65 hurdat_atl main 971 963 O_____________ hurdat_atl AL061953 29.9000 -67.8000 HU 65 1 18 40
1953251N18295 1953 50 NA NA DOLLY 1953-09-11 21:00:00 TS 30.6160 -67.0960 main 971 964 P_____________ AL061953 30.6160 -67.0960 HU 62 0 19 43
1953251N18295 1953 50 NA NA DOLLY 1953-09-12 00:00:00 TS 31.3000 -66.3000 60 hurdat_atl main 987 987 O_____________ hurdat_atl AL061953 31.3000 -66.3000 TS 60 0 18 50
1953251N18295 1953 50 NA NA DOLLY 1953-09-12 03:00:00 TS 31.7652 -65.4793 main 1023 1023 P_____________ AL061953 31.7652 -65.4793 TS 57 0 19 52
1953251N18295 1953 50 NA NA DOLLY 1953-09-12 05:00:00 TS 32.3000 -64.8000 55 996 hurdat_atl main 1057 1061 O_____________ hurdat_atl AL061953 32.3000 -64.8000 L TS 55 996 0 26 44
1953251N18295 1953 50 NA NA DOLLY 1953-09-12 06:00:00 TS 32.7000 -64.4000 55 996 hurdat_atl main 1074 1071 O_____________ hurdat_atl AL061953 32.7000 -64.4000 TS 55 996 0 30 44
1953251N18295 1953 50 NA NA DOLLY 1953-09-12 09:00:00 TS 33.7475 -63.1300 main 1076 1032 P_____________ AL061953 33.7475 -63.1300 TS 55 995 0 29 47
1953251N18295 1953 50 NA NA DOLLY 1953-09-12 12:00:00 TS 34.7000 -61.8000 55 994 hurdat_atl main 1024 956 O_____________ hurdat_atl AL061953 34.7000 -61.8000 TS 55 994 0 30 47
1953251N18295 1953 50 NA NA DOLLY 1953-09-12 15:00:00 TS 35.7712 -60.4562 main 949 916 P_____________ AL061953 35.7712 -60.4562 TS 55 0 30 46
1953251N18295 1953 50 NA NA DOLLY 1953-09-12 18:00:00 TS 36.8000 -59.1000 55 hurdat_atl main 911 883 O_____________ hurdat_atl AL061953 36.8000 -59.1000 TS 55 0 29 48
1953251N18295 1953 50 NA NA DOLLY 1953-09-12 21:00:00 TS 37.6923 -57.7752 main 878 836 P_____________ AL061953 37.6923 -57.7752 TS 52 0 27 51
1953251N18295 1953 50 NA NA DOLLY 1953-09-13 00:00:00 ET 38.5000 -56.4000 50 hurdat_atl main 839 823 O_____________ hurdat_atl AL061953 38.5000 -56.4000 EX 50 -4 27 55
1953251N18295 1953 50 NA NA DOLLY 1953-09-13 03:00:00 ET 39.2619 -54.9273 main 818 733 P_____________ AL061953 39.2619 -54.9273 EX 50 -4 28 58
1953251N18295 1953 50 NA NA DOLLY 1953-09-13 06:00:00 ET 40.0000 -53.3000 50 hurdat_atl main 733 658 O_____________ hurdat_atl AL061953 40.0000 -53.3000 EX 50 -4 31 60
1953251N18295 1953 50 NA NA DOLLY 1953-09-13 09:00:00 ET 40.7963 -51.4101 main 660 634 P_____________ AL061953 40.7963 -51.4101 EX 50 -4 32 62
1953251N18295 1953 50 NA NA DOLLY 1953-09-13 12:00:00 ET 41.5000 -49.5000 50 hurdat_atl main 638 636 O_____________ hurdat_atl AL061953 41.5000 -49.5000 EX 50 -4 30 66
1953251N18295 1953 50 NA NA DOLLY 1953-09-13 15:00:00 ET 42.0308 -47.7773 main 666 662 P_____________ AL061953 42.0308 -47.7773 EX 52 -4 25 69
1953251N18295 1953 50 NA NA DOLLY 1953-09-13 18:00:00 ET 42.4000 -46.3000 55 hurdat_atl main 717 717 O_____________ hurdat_atl AL061953 42.4000 -46.3000 EX 55 -4 21 73
1953251N18295 1953 50 NA NA DOLLY 1953-09-13 21:00:00 ET 42.6343 -45.1063 main 777 776 P_____________ AL061953 42.6343 -45.1063 EX 55 -4 17 76
1953251N18295 1953 50 NA NA DOLLY 1953-09-14 00:00:00 ET 42.8000 -44.1000 55 hurdat_atl main 828 828 O_____________ hurdat_atl AL061953 42.8000 -44.1000 EX 55 -4 16 75
1953251N18295 1953 50 NA NA DOLLY 1953-09-14 03:00:00 ET 43.0297 -43.0409 main 890 890 P_____________ AL061953 43.0297 -43.0409 EX 52 -4 15 75
1953251N18295 1953 50 NA NA DOLLY 1953-09-14 06:00:00 ET 43.2000 -42.1000 50 hurdat_atl main 941 941 O_____________ hurdat_atl AL061953 43.2000 -42.1000 EX 50 -4 12 80
1953251N18295 1953 50 NA NA DOLLY 1953-09-14 09:00:00 ET 43.2436 -41.3542 main 991 991 P_____________ AL061953 43.2436 -41.3542 EX 47 -4 10 90
1953251N18295 1953 50 NA NA DOLLY 1953-09-14 12:00:00 ET 43.2000 -40.7000 45 hurdat_atl main 1040 1040 O_____________ hurdat_atl AL061953 43.2000 -40.7000 EX 45 -4 10 98
1953251N18295 1953 50 NA NA DOLLY 1953-09-14 15:00:00 ET 43.0994 -40.0067 main 1094 1094 P_____________ AL061953 43.0994 -40.0067 EX 45 -4 10 101
1953251N18295 1953 50 NA NA DOLLY 1953-09-14 18:00:00 ET 43.0000 -39.3000 45 hurdat_atl main 1149 1149 O_____________ hurdat_atl AL061953 43.0000 -39.3000 EX 45 -4 11 96
1953251N18295 1953 50 NA NA DOLLY 1953-09-14 21:00:00 ET 42.9845 -38.5655 main 1198 1198 P_____________ AL061953 42.9845 -38.5655 EX 45 -4 11 90
1953251N18295 1953 50 NA NA DOLLY 1953-09-15 00:00:00 ET 43.0000 -37.8000 45 hurdat_atl main 1255 1255 O_____________ hurdat_atl AL061953 43.0000 -37.8000 EX 45 -4 11 90
1953251N18295 1953 50 NA NA DOLLY 1953-09-15 03:00:00 ET 42.9768 -37.0215 main 1312 1312 P_____________ AL061953 42.9768 -37.0215 EX 45 -4 12 90
1953251N18295 1953 50 NA NA DOLLY 1953-09-15 06:00:00 ET 43.0000 -36.2000 45 hurdat_atl main 1369 1369 O_____________ hurdat_atl AL061953 43.0000 -36.2000 EX 45 -4 12 82
1953251N18295 1953 50 NA NA DOLLY 1953-09-15 09:00:00 ET 43.1557 -35.3693 main 1417 1417 P_____________ AL061953 43.1557 -35.3693 EX 45 -4 13 77
1953251N18295 1953 50 NA NA DOLLY 1953-09-15 12:00:00 ET 43.3000 -34.4000 45 hurdat_atl main 1486 1486 O_____________ hurdat_atl AL061953 43.3000 -34.4000 EX 45 -4 15 84
1953251N18295 1953 50 NA NA DOLLY 1953-09-15 15:00:00 ET 43.3144 -33.2865 main 1566 1566 P_____________ AL061953 43.3144 -33.2865 EX 42 -4 18 93
1953251N18295 1953 50 NA NA DOLLY 1953-09-15 18:00:00 ET 43.2000 -31.9000 40 hurdat_atl main 1674 1674 O_____________ hurdat_atl AL061953 43.2000 -31.9000 EX 40 -4 24 100
1953251N18295 1953 50 NA NA DOLLY 1953-09-15 21:00:00 ET 42.9199 -30.0725 main 1682 1550 P_____________ AL061953 42.9199 -30.0725 EX 40 -4 27 103
1953251N18295 1953 50 NA NA DOLLY 1953-09-16 00:00:00 ET 42.6000 -28.3000 40 hurdat_atl main 1541 1456 O_____________ hurdat_atl AL061953 42.6000 -28.3000 EX 40 -4 22 103
1953251N18295 1953 50 NA NA DOLLY 1953-09-16 03:00:00 ET 42.4226 -27.1058 main 1448 1377 P_____________ AL061953 42.4226 -27.1058 EX 37 -4 16 100
1953251N18295 1953 50 NA NA DOLLY 1953-09-16 06:00:00 ET 42.3000 -26.1000 35 hurdat_atl main 1369 1289 O_____________ hurdat_atl AL061953 42.3000 -26.1000 EX 35 -4 16 99
1953251N18295 1953 50 NA NA DOLLY 1953-09-16 09:00:00 ET 42.1618 -24.9925 main 1281 1196 P_____________ AL061953 42.1618 -24.9925 EX 32 -4 17 100
1953251N18295 1953 50 NA NA DOLLY 1953-09-16 12:00:00 ET 42.0000 -23.8000 30 hurdat_atl main 1188 O_____________ hurdat_atl AL061953 42.0000 -23.8000 EX 30 -4 18 100

About IBTrACS Database

This database is a web-friendly format of International Best Track Archive for Climate Stewardship (IBTrACS), a global best track data archive curated by NOAA dating back to 1842.

Updated: 2021-11-26